createdAt,value
2022-11-29T00:00:47.065Z,101476.22
2022-11-29T00:03:14.201Z,101495.03
2022-11-29T00:05:40.732Z,101488.31
2022-11-29T00:08:07.155Z,101511.09
2022-11-29T00:10:36.878Z,101511.50
2022-11-29T00:13:03.402Z,101498.41
2022-11-29T00:15:29.815Z,101507.81
2022-11-29T00:17:56.245Z,101488.34
2022-11-29T00:20:22.743Z,101500.34
2022-11-29T00:22:49.135Z,101500.47
2022-11-29T00:25:15.538Z,101515.72
2022-11-29T00:27:41.898Z,101515.44
2022-11-29T00:30:08.882Z,101511.59
2022-11-29T00:32:35.667Z,101518.84
2022-11-29T00:35:06.619Z,101503.72
2022-11-29T00:37:35.838Z,101515.97
2022-11-29T00:40:02.646Z,101521.94
2022-11-29T00:42:29.021Z,101519.25
2022-11-29T00:44:55.378Z,101504.09
2022-11-29T00:47:21.776Z,101524.66
2022-11-29T00:49:48.205Z,101509.81
2022-11-29T00:52:14.598Z,101494.84
2022-11-29T00:54:41.035Z,101492.94
2022-11-29T00:57:07.455Z,101527.16
2022-11-29T00:59:33.818Z,101498.25
2022-11-29T01:02:00.225Z,101499.66
2022-11-29T01:04:26.693Z,101512.72
2022-11-29T01:06:53.254Z,101500.84
2022-11-29T01:09:20.619Z,101523.34
2022-11-29T01:11:49.095Z,101515.72
2022-11-29T01:14:15.528Z,101517.47
2022-11-29T01:16:41.990Z,101506.00
2022-11-29T01:19:08.682Z,101542.13
2022-11-29T01:21:35.243Z,101543.31
2022-11-29T01:24:01.804Z,101505.31
2022-11-29T01:26:29.903Z,101550.09
2022-11-29T01:28:57.594Z,101555.97
2022-11-29T01:31:30.118Z,101539.06
2022-11-29T01:33:57.714Z,101532.84
2022-11-29T01:36:24.529Z,101540.72
2022-11-29T01:38:51.395Z,101556.78
2022-11-29T01:41:24.418Z,101551.09
2022-11-29T01:44:01.502Z,101551.06
2022-11-29T01:46:30.811Z,101555.16
2022-11-29T01:49:01.941Z,101542.78
2022-11-29T01:51:29.128Z,101535.56
2022-11-29T01:53:56.076Z,101546.84
2022-11-29T01:56:23.095Z,101565.81
2022-11-29T01:58:49.476Z,101560.06
2022-11-29T02:01:16.109Z,101563.22
2022-11-29T02:03:42.539Z,101574.94
2022-11-29T02:06:08.978Z,101540.59
2022-11-29T02:08:41.776Z,101574.91
2022-11-29T02:11:32.437Z,101577.38
2022-11-29T02:14:11.452Z,101571.91
2022-11-29T02:16:56.916Z,101556.94
2022-11-29T02:20:00.942Z,101569.31
2022-11-29T02:22:36.913Z,101553.38
2022-11-29T02:25:25.103Z,101569.44
2022-11-29T02:28:30.285Z,101571.75
2022-11-29T02:31:20.563Z,101569.31
2022-11-29T02:34:07.178Z,101584.44
2022-11-29T02:36:45.228Z,101565.19
2022-11-29T02:39:26.766Z,101580.75
2022-11-29T02:42:02.134Z,101586.06
2022-11-29T02:45:04.402Z,101582.34
2022-11-29T02:47:45.990Z,101579.13
2022-11-29T02:50:19.593Z,101587.75
2022-11-29T02:53:06.571Z,101588.28
2022-11-29T02:55:42.504Z,101567.19
2022-11-29T02:58:17.384Z,101601.69
2022-11-29T03:00:55.510Z,101594.91
2022-11-29T03:03:26.475Z,101599.13
2022-11-29T03:06:05.111Z,101609.09
2022-11-29T03:08:43.061Z,101578.50
2022-11-29T03:11:28.403Z,101608.91
2022-11-29T03:14:12.973Z,101616.66
2022-11-29T03:17:11.615Z,101607.66
2022-11-29T03:20:01.294Z,101617.44
2022-11-29T03:22:43.438Z,101607.78
2022-11-29T03:25:13.833Z,101620.63
2022-11-29T03:27:44.301Z,101616.78
2022-11-29T03:30:14.064Z,101598.22
2022-11-29T03:32:40.818Z,101634.38
2022-11-29T03:35:11.896Z,101640.06
2022-11-29T03:37:48.623Z,101636.28
2022-11-29T03:40:18.890Z,101625.44
2022-11-29T03:43:20.677Z,101638.16
2022-11-29T03:46:00.977Z,101628.47
2022-11-29T03:48:27.247Z,101643.22
2022-11-29T03:50:56.962Z,101620.44
2022-11-29T03:53:46.436Z,101651.28
2022-11-29T03:56:35.985Z,101651.72
2022-11-29T03:59:31.021Z,101638.59
2022-11-29T04:02:29.519Z,101656.47
2022-11-29T04:05:13.771Z,101662.06
2022-11-29T04:08:00.343Z,101657.00
2022-11-29T04:10:56.447Z,101663.56
2022-11-29T04:13:44.699Z,101659.47
2022-11-29T04:16:27.255Z,101646.09
2022-11-29T04:19:05.940Z,101663.66
2022-11-29T04:21:44.412Z,101675.78
2022-11-29T04:24:48.088Z,101684.94
2022-11-29T04:27:32.671Z,101678.34
2022-11-29T04:30:03.837Z,101650.31
2022-11-29T04:33:08.066Z,101676.38
2022-11-29T04:36:01.867Z,101675.06
2022-11-29T04:38:50.480Z,101680.41
2022-11-29T04:41:40.254Z,101674.94
2022-11-29T04:44:57.383Z,101675.03
2022-11-29T04:47:41.314Z,101681.66
2022-11-29T04:50:16.865Z,101678.22
2022-11-29T04:52:43.160Z,101690.00
2022-11-29T04:55:31.126Z,101692.47
2022-11-29T04:58:07.442Z,101698.91
2022-11-29T05:00:49.942Z,101698.59
2022-11-29T05:03:49.337Z,101694.69
2022-11-29T05:06:39.515Z,101696.84
2022-11-29T05:09:12.382Z,101693.56
2022-11-29T05:11:53.874Z,101707.75
2022-11-29T05:14:39.077Z,101708.78
2022-11-29T05:17:31.915Z,101720.09
2022-11-29T05:20:24.264Z,101715.81
2022-11-29T05:22:56.623Z,101705.53
2022-11-29T05:25:40.242Z,101718.53
2022-11-29T05:28:17.638Z,101682.41
2022-11-29T05:30:58.071Z,101734.16
2022-11-29T05:33:44.682Z,101732.44
2022-11-29T05:36:33.294Z,101716.38
2022-11-29T05:39:15.897Z,101731.84
2022-11-29T05:41:48.240Z,101741.28
2022-11-29T05:44:32.590Z,101737.03
2022-11-29T05:47:05.222Z,101739.00
2022-11-29T05:49:37.451Z,101748.47
2022-11-29T05:52:22.142Z,101750.47
2022-11-29T05:55:10.463Z,101758.22
2022-11-29T05:57:57.531Z,101751.75
2022-11-29T06:00:24.733Z,101753.13
2022-11-29T06:03:06.729Z,101769.09
2022-11-29T06:05:40.971Z,101766.84
2022-11-29T06:08:16.783Z,101756.38
2022-11-29T06:11:06.432Z,101747.91
2022-11-29T06:13:44.850Z,101757.44
2022-11-29T06:16:26.465Z,101768.47
2022-11-29T06:19:31.442Z,101778.56
2022-11-29T06:22:21.203Z,101776.22
2022-11-29T06:25:22.943Z,101748.88
2022-11-29T06:28:02.143Z,101762.56
2022-11-29T06:31:17.704Z,101776.44
2022-11-29T06:34:04.298Z,101790.38
2022-11-29T06:36:37.719Z,101775.63
2022-11-29T06:39:04.481Z,101781.78
2022-11-29T06:41:31.336Z,101782.75
2022-11-29T06:43:58.234Z,101762.47
2022-11-29T06:46:45.463Z,101797.91
2022-11-29T06:49:13.170Z,101797.19
2022-11-29T06:52:04.453Z,101800.84
2022-11-29T06:54:33.678Z,101806.59
2022-11-29T06:57:15.426Z,101811.66
2022-11-29T06:59:47.730Z,101821.50
2022-11-29T07:02:51.895Z,101826.22
2022-11-29T07:05:27.607Z,101837.72
2022-11-29T07:07:56.365Z,101842.50
2022-11-29T07:10:23.674Z,101837.59
2022-11-29T07:12:51.434Z,101845.22
2022-11-29T07:15:20.812Z,101841.56
2022-11-29T07:17:53.425Z,101855.19
2022-11-29T07:20:37.214Z,101846.19
2022-11-29T07:23:20.041Z,101846.56
2022-11-29T07:26:01.491Z,101847.03
2022-11-29T07:28:50.853Z,101863.69
2022-11-29T07:31:23.519Z,101874.50
2022-11-29T07:33:56.107Z,101876.03
2022-11-29T07:36:41.268Z,101871.91
2022-11-29T07:39:10.711Z,101871.47
2022-11-29T07:41:45.855Z,101867.59
2022-11-29T07:44:29.931Z,101868.63
2022-11-29T07:46:56.399Z,101889.16
2022-11-29T07:49:22.795Z,101867.81
2022-11-29T07:51:49.293Z,101895.63
2022-11-29T07:54:17.894Z,101900.09
2022-11-29T07:56:44.298Z,101878.63
2022-11-29T07:59:12.387Z,101884.59
2022-11-29T08:01:39.880Z,101897.19
2022-11-29T08:04:07.029Z,101890.13
2022-11-29T08:06:33.521Z,101906.69
2022-11-29T08:09:00.370Z,101905.72
2022-11-29T08:11:27.461Z,101907.56
2022-11-29T08:13:58.431Z,101908.06
2022-11-29T08:16:24.872Z,101888.47
2022-11-29T08:18:53.594Z,101913.13
2022-11-29T08:21:20.156Z,101897.25
2022-11-29T08:23:47.795Z,101896.00
2022-11-29T08:26:14.809Z,101924.50
2022-11-29T08:28:41.218Z,101910.44
2022-11-29T08:31:09.725Z,101911.50
2022-11-29T08:33:41.174Z,101924.63
2022-11-29T08:36:15.054Z,101925.78
2022-11-29T08:38:41.675Z,101927.09
2022-11-29T08:41:10.029Z,101930.63
2022-11-29T08:43:36.407Z,101899.38
2022-11-29T08:46:02.876Z,101896.81
2022-11-29T08:48:29.385Z,101886.16
2022-11-29T08:50:56.317Z,101921.44
2022-11-29T08:53:41.519Z,101933.91
2022-11-29T08:57:04.400Z,101948.84
2022-11-29T08:59:04.453Z,101934.97
2022-11-29T09:01:31.075Z,101940.38
2022-11-29T09:04:00.354Z,101927.34
2022-11-29T09:06:32.222Z,101938.72
2022-11-29T09:08:59.470Z,101941.31
2022-11-29T09:11:27.662Z,101945.78
2022-11-29T09:14:02.643Z,101943.56
2022-11-29T09:16:33.214Z,101944.97
2022-11-29T09:19:00.140Z,101935.81
2022-11-29T09:21:27.965Z,101961.28
2022-11-29T09:23:58.824Z,101951.31
2022-11-29T09:26:30.506Z,101927.59
2022-11-29T09:29:01.004Z,101961.41
2022-11-29T09:31:28.462Z,101960.81
2022-11-29T09:33:55.883Z,101929.84
2022-11-29T09:36:27.808Z,101928.88
2022-11-29T09:38:55.178Z,101964.13
2022-11-29T09:41:53.345Z,101974.66
2022-11-29T09:44:44.873Z,101976.69
2022-11-29T09:47:35.793Z,101961.41
2022-11-29T09:50:25.630Z,101985.63
2022-11-29T09:53:04.522Z,101984.66
2022-11-29T09:55:43.158Z,101981.72
2022-11-29T09:58:14.271Z,101993.34
2022-11-29T10:00:47.361Z,101978.69
2022-11-29T10:03:23.258Z,101972.56
2022-11-29T10:05:53.992Z,101992.88
2022-11-29T10:08:26.301Z,101993.72
2022-11-29T10:11:11.400Z,102007.00
2022-11-29T10:13:40.390Z,101985.69
2022-11-29T10:16:13.853Z,101996.31
2022-11-29T10:18:48.846Z,101978.91
2022-11-29T10:21:21.561Z,101962.13
2022-11-29T10:23:54.555Z,101995.47
2022-11-29T10:26:22.898Z,101971.16
2022-11-29T10:28:49.572Z,101998.50
2022-11-29T10:31:37.242Z,102012.16
2022-11-29T10:34:13.046Z,101988.56
2022-11-29T10:36:43.722Z,102007.44
2022-11-29T10:39:21.376Z,102008.13
2022-11-29T10:41:51.617Z,101985.44
2022-11-29T10:44:18.164Z,101991.03
2022-11-29T10:46:44.671Z,102010.94
2022-11-29T10:49:14.633Z,101973.50
2022-11-29T10:51:42.074Z,102012.63
2022-11-29T10:54:23.703Z,102008.84
2022-11-29T10:59:58.995Z,101982.81
2022-11-29T11:02:25.504Z,102007.50
2022-11-29T11:04:51.932Z,102006.72
2022-11-29T11:07:35.056Z,101996.75
2022-11-29T11:10:04.225Z,101984.38
2022-11-29T11:12:33.428Z,101983.59
2022-11-29T11:15:25.007Z,101994.34
2022-11-29T11:17:57.054Z,101985.41
2022-11-29T11:20:25.281Z,101994.56
2022-11-29T11:23:04.292Z,101994.06
2022-11-29T11:25:36.525Z,101991.41
2022-11-29T11:28:21.733Z,101996.19
2022-11-29T11:31:03.463Z,101980.47
2022-11-29T11:33:48.656Z,101981.22
2022-11-29T11:36:27.268Z,102000.06
2022-11-29T11:38:54.738Z,101999.19
2022-11-29T11:41:47.952Z,102003.16
2022-11-29T11:44:52.016Z,102001.25
2022-11-29T11:47:27.319Z,101987.94
2022-11-29T11:50:06.738Z,102002.16
2022-11-29T11:52:40.699Z,101998.94
2022-11-29T11:55:21.711Z,102015.22
2022-11-29T11:58:13.604Z,101964.88
2022-11-29T12:01:06.416Z,101995.06
2022-11-29T12:03:38.933Z,101981.41
2022-11-29T12:06:14.558Z,101994.38
2022-11-29T12:08:42.034Z,101963.91
2022-11-29T12:11:10.807Z,102011.28
2022-11-29T12:13:48.232Z,101972.84
2022-11-29T12:16:19.754Z,101971.81
2022-11-29T12:18:51.079Z,102024.00
2022-11-29T12:21:24.405Z,102027.41
2022-11-29T12:24:06.114Z,102016.66
2022-11-29T12:29:29.114Z,101979.91
2022-11-29T12:32:17.381Z,102036.97
2022-11-29T12:35:09.357Z,102036.22
2022-11-29T12:37:43.761Z,101981.53
2022-11-29T12:40:20.876Z,101995.16
2022-11-29T12:43:35.574Z,102048.47
2022-11-29T12:46:11.219Z,102052.84
2022-11-29T12:48:53.065Z,102063.59
2022-11-29T12:51:32.854Z,102003.91
2022-11-29T12:54:40.854Z,101999.34
2022-11-29T12:57:50.196Z,102054.97
2022-11-29T13:00:18.554Z,102070.56
2022-11-29T13:03:03.633Z,102067.44
2022-11-29T13:05:39.213Z,102057.72
2022-11-29T13:08:26.669Z,102067.66
2022-11-29T13:11:31.537Z,102070.50
2022-11-29T13:14:34.653Z,102064.13
2022-11-29T13:17:00.753Z,102066.44
2022-11-29T13:19:48.422Z,102072.31
2022-11-29T13:22:31.538Z,102045.03
2022-11-29T13:25:01.795Z,102074.50
2022-11-29T13:27:35.075Z,102076.97
2022-11-29T13:30:02.282Z,102071.25
2022-11-29T13:32:37.280Z,102079.09
2022-11-29T13:35:07.907Z,102056.84
2022-11-29T13:38:06.940Z,102081.06
2022-11-29T13:40:56.170Z,102066.47
2022-11-29T13:43:33.758Z,102081.28
2022-11-29T13:46:20.164Z,102077.28
2022-11-29T13:48:49.137Z,102068.78
2022-11-29T13:51:25.187Z,102066.59
2022-11-29T13:53:51.613Z,102084.19
2022-11-29T13:56:36.428Z,102064.88
2022-11-29T13:59:07.945Z,102078.31
2022-11-29T14:01:53.872Z,102056.88
2022-11-29T14:04:23.338Z,102078.69
2022-11-29T14:06:50.235Z,102065.06
2022-11-29T14:09:23.863Z,102070.13
2022-11-29T14:12:01.356Z,102077.34
2022-11-29T14:14:31.221Z,102050.97
2022-11-29T14:17:01.579Z,102076.16
2022-11-29T14:19:34.241Z,102080.22
2022-11-29T14:22:06.791Z,102084.84
2022-11-29T14:24:36.107Z,102086.34
2022-11-29T14:27:14.553Z,102090.38
2022-11-29T14:29:50.237Z,102087.00
2022-11-29T14:32:34.575Z,102080.66
2022-11-29T14:35:09.811Z,102094.75
2022-11-29T14:38:14.470Z,102093.03
2022-11-29T14:40:40.767Z,102106.09
2022-11-29T14:43:23.379Z,102103.44
2022-11-29T14:46:07.903Z,102092.50
2022-11-29T14:48:34.948Z,102089.91
2022-11-29T14:51:16.251Z,102077.00
2022-11-29T14:53:43.857Z,102083.56
2022-11-29T14:56:28.538Z,102093.34
2022-11-29T14:59:32.534Z,102101.69
2022-11-29T15:02:00.914Z,102076.66
2022-11-29T15:04:28.043Z,102086.78
2022-11-29T15:06:55.722Z,102099.94
2022-11-29T15:09:23.762Z,102098.66
2022-11-29T15:11:58.178Z,102099.50
2022-11-29T15:14:34.355Z,102093.13
2022-11-29T15:17:10.660Z,102106.69
2022-11-29T15:19:49.263Z,102084.59
2022-11-29T15:22:18.636Z,102100.59
2022-11-29T15:24:53.034Z,102111.53
2022-11-29T15:27:19.832Z,102109.50
2022-11-29T15:29:49.250Z,102104.88
2022-11-29T15:32:26.264Z,102119.22
2022-11-29T15:34:56.698Z,102089.69
2022-11-29T15:37:39.390Z,102109.47
2022-11-29T15:40:07.753Z,102121.09
2022-11-29T15:42:55.641Z,102116.50
2022-11-29T15:45:36.660Z,102110.41
2022-11-29T15:48:15.626Z,102110.09
2022-11-29T15:50:46.520Z,102116.00
2022-11-29T15:53:18.342Z,102114.63
2022-11-29T15:55:45.265Z,102124.72
2022-11-29T15:58:13.086Z,102127.56
2022-11-29T16:00:39.983Z,102131.91
2022-11-29T16:03:07.739Z,102139.41
2022-11-29T16:05:37.062Z,102128.13
2022-11-29T16:08:13.503Z,102133.78
2022-11-29T16:10:50.203Z,102141.25
2022-11-29T16:13:25.594Z,102146.91
2022-11-29T16:16:04.535Z,102129.47
2022-11-29T16:18:32.239Z,102127.13
2022-11-29T16:21:00.098Z,102135.50
2022-11-29T16:23:34.333Z,102138.69
2022-11-29T16:26:27.372Z,102135.25
2022-11-29T16:28:56.152Z,102144.66
2022-11-29T16:31:24.835Z,102135.38
2022-11-29T16:33:52.617Z,102145.75
2022-11-29T16:36:22.368Z,102117.94
2022-11-29T16:38:52.153Z,102148.19
2022-11-29T16:41:36.312Z,102136.91
2022-11-29T16:44:03.813Z,102157.16
2022-11-29T16:46:34.028Z,102146.59
2022-11-29T16:49:03.687Z,102149.53
2022-11-29T16:51:43.755Z,102121.66
2022-11-29T16:54:24.660Z,102153.78
2022-11-29T16:56:52.917Z,102142.28
2022-11-29T16:59:26.722Z,102147.91
2022-11-29T17:01:55.678Z,102152.13
2022-11-29T17:04:24.494Z,102147.94
2022-11-29T17:06:55.205Z,102126.06
2022-11-29T17:09:27.610Z,102147.47
2022-11-29T17:11:55.378Z,102152.78
2022-11-29T17:14:21.923Z,102165.94
2022-11-29T17:16:49.884Z,102157.34
2022-11-29T17:19:16.611Z,102164.44
2022-11-29T17:21:43.010Z,102147.72
2022-11-29T17:24:13.189Z,102162.75
2022-11-29T17:26:40.557Z,102167.00
2022-11-29T17:29:07.142Z,102169.00
2022-11-29T17:31:33.570Z,102168.63
2022-11-29T17:34:00.670Z,102164.16
2022-11-29T17:36:27.666Z,102174.38
2022-11-29T17:38:54.326Z,102174.72
2022-11-29T17:41:23.190Z,102182.53
2022-11-29T17:43:50.377Z,102161.09
2022-11-29T17:46:19.748Z,102184.25
2022-11-29T17:48:46.278Z,102150.03
2022-11-29T17:51:43.675Z,102145.44
2022-11-29T17:54:04.451Z,102164.28
2022-11-29T17:56:30.895Z,102184.63
2022-11-29T17:58:58.980Z,102189.81
2022-11-29T18:01:27.960Z,102190.66
2022-11-29T18:03:56.195Z,102181.56
2022-11-29T18:06:25.312Z,102196.09
2022-11-29T18:08:56.882Z,102197.38
2022-11-29T18:11:29.834Z,102188.06
2022-11-29T18:13:57.430Z,102194.44
2022-11-29T18:16:26.542Z,102202.22
2022-11-29T18:19:10.905Z,102207.13
2022-11-29T18:21:37.982Z,102199.38
2022-11-29T18:24:05.519Z,102212.19
2022-11-29T18:26:33.555Z,102213.28
2022-11-29T18:29:00.455Z,102211.72
2022-11-29T18:31:31.783Z,102193.34
2022-11-29T18:34:00.165Z,102215.38
2022-11-29T18:36:32.659Z,102222.06
2022-11-29T18:39:01.064Z,102188.91
2022-11-29T18:41:29.018Z,102218.66
2022-11-29T18:43:58.039Z,102201.69
2022-11-29T18:46:25.444Z,102187.41
2022-11-29T18:48:52.025Z,102213.69
2022-11-29T18:51:20.078Z,102203.91
2022-11-29T18:53:46.991Z,102230.06
2022-11-29T18:56:17.139Z,102228.31
2022-11-29T18:58:47.227Z,102220.16
2022-11-29T19:01:18.678Z,102223.72
2022-11-29T19:03:47.438Z,102207.59
2022-11-29T19:06:16.341Z,102230.50
2022-11-29T19:08:43.228Z,102218.75
2022-11-29T19:11:14.624Z,102233.22
2022-11-29T19:13:41.503Z,102241.56
2022-11-29T19:16:12.945Z,102237.69
2022-11-29T19:18:39.937Z,102243.81
2022-11-29T19:21:08.234Z,102227.22
2022-11-29T19:23:34.639Z,102229.00
2022-11-29T19:26:08.313Z,102241.81
2022-11-29T19:28:39.338Z,102216.38
2022-11-29T19:31:06.696Z,102243.00
2022-11-29T19:33:34.606Z,102235.69
2022-11-29T19:36:10.039Z,102247.22
2022-11-29T19:38:36.795Z,102226.91
2022-11-29T19:41:13.745Z,102236.88
2022-11-29T19:43:40.207Z,102245.00
2022-11-29T19:46:08.317Z,102220.75
2022-11-29T19:48:34.838Z,102197.06
2022-11-29T19:51:01.400Z,102241.94
2022-11-29T19:53:27.863Z,102211.56
2022-11-29T19:55:54.227Z,102224.53
2022-11-29T19:58:20.842Z,102208.13
2022-11-29T20:00:47.337Z,102246.75
2022-11-29T20:03:13.875Z,102218.16
2022-11-29T20:05:40.448Z,102259.47
2022-11-29T20:08:06.911Z,102243.25
2022-11-29T20:10:33.949Z,102260.66
2022-11-29T20:13:00.306Z,102244.16
2022-11-29T20:15:26.723Z,102251.69
2022-11-29T20:17:53.132Z,102210.25
2022-11-29T20:20:19.689Z,102253.69
2022-11-29T20:22:46.159Z,102252.84
2022-11-29T20:25:13.298Z,102245.78
2022-11-29T20:27:39.740Z,102252.38
2022-11-29T20:30:07.955Z,102270.03
2022-11-29T20:32:44.336Z,102265.81
2022-11-29T20:35:12.419Z,102242.72
2022-11-29T20:38:11.978Z,102269.78
2022-11-29T20:41:08.447Z,102268.00
2022-11-29T20:43:46.322Z,102255.06
2022-11-29T20:46:12.957Z,102261.91
2022-11-29T20:48:39.583Z,102257.44
2022-11-29T20:51:06.383Z,102275.69
2022-11-29T20:53:40.659Z,102281.69
2022-11-29T20:56:08.156Z,102266.88
2022-11-29T20:58:34.720Z,102266.41
2022-11-29T21:01:01.307Z,102287.22
2022-11-29T21:03:28.593Z,102266.50
2022-11-29T21:05:55.994Z,102250.63
2022-11-29T21:08:25.441Z,102294.53
2022-11-29T21:10:52.256Z,102293.69
2022-11-29T21:13:23.099Z,102274.50
2022-11-29T21:15:50.206Z,102279.13
2022-11-29T21:18:27.009Z,102289.97
2022-11-29T21:21:12.182Z,102291.59
2022-11-29T21:24:06.629Z,102288.78
2022-11-29T21:26:41.719Z,102299.13
2022-11-29T21:29:19.890Z,102305.72
2022-11-29T21:31:48.262Z,102301.50
2022-11-29T21:34:14.678Z,102291.84
2022-11-29T21:36:41.780Z,102264.31
2022-11-29T21:39:11.599Z,102297.03
2022-11-29T21:41:38.400Z,102309.16
2022-11-29T21:44:07.449Z,102304.31
2022-11-29T21:46:34.800Z,102278.66
2022-11-29T21:49:01.334Z,102297.75
2022-11-29T21:51:27.780Z,102285.88
2022-11-29T21:53:54.130Z,102301.75
2022-11-29T21:56:20.546Z,102301.41
2022-11-29T21:58:46.978Z,102324.59
2022-11-29T22:01:15.698Z,102284.91
2022-11-29T22:03:42.659Z,102324.94
2022-11-29T22:06:12.051Z,102320.44
2022-11-29T22:08:39.898Z,102292.94
2022-11-29T22:11:08.326Z,102321.78
2022-11-29T22:13:36.067Z,102320.44
2022-11-29T22:16:07.129Z,102300.59
2022-11-29T22:18:33.666Z,102304.69
2022-11-29T22:21:05.187Z,102324.69
2022-11-29T22:23:31.982Z,102313.41
2022-11-29T22:26:05.839Z,102307.50
2022-11-29T22:28:33.053Z,102313.16
2022-11-29T22:31:07.755Z,102297.41
2022-11-29T22:33:34.674Z,102318.34
2022-11-29T22:36:09.859Z,102294.34
2022-11-29T22:38:36.715Z,102303.16
2022-11-29T22:41:05.792Z,102330.56
2022-11-29T22:43:32.978Z,102336.25
2022-11-29T22:46:21.259Z,102333.88
2022-11-29T22:48:51.580Z,102336.56
2022-11-29T22:51:23.987Z,102343.34
2022-11-29T22:53:51.433Z,102308.78
2022-11-29T22:56:18.590Z,102348.22
2022-11-29T22:58:45.438Z,102289.22
2022-11-29T23:01:26.111Z,102343.03
2022-11-29T23:03:54.895Z,102350.00
2022-11-29T23:06:25.846Z,102346.59
2022-11-29T23:08:54.006Z,102346.81
2022-11-29T23:11:23.979Z,102322.31
2022-11-29T23:13:50.258Z,102353.69
2022-11-29T23:16:19.172Z,102299.06
2022-11-29T23:18:45.734Z,102344.41
2022-11-29T23:21:13.703Z,102355.59
2022-11-29T23:23:40.523Z,102358.94
2022-11-29T23:26:08.287Z,102344.81
2022-11-29T23:28:35.030Z,102336.06
2022-11-29T23:31:01.975Z,102359.06
2022-11-29T23:33:28.815Z,102353.16
2022-11-29T23:36:04.931Z,102317.94
2022-11-29T23:38:31.250Z,102362.66
2022-11-29T23:40:57.690Z,102280.63
2022-11-29T23:43:24.302Z,102346.91
2022-11-29T23:45:50.819Z,102301.72
2022-11-29T23:48:17.271Z,102279.72
2022-11-29T23:50:43.889Z,102293.47
2022-11-29T23:53:12.940Z,102360.56
2022-11-29T23:55:39.788Z,102362.94
2022-11-29T23:58:06.420Z,102298.28
